Time;durP1;ratioP1;P1;durP2;ratioP2;P2;SDS_P1;SDS_P2;PMS_P1;PMS_P2;Temp;Humidity;BMP_temperature;BMP_pressure;BME280_temperature;BME280_humidity;BME280_pressure;Samples;Min_cycle;Max_cycle;Signal;HPM_P1;HPM_P2
2021/07/09 00:02:03;;;;;;;;;;;;;;;17.26;100.00;101131.59;5000297;28;20075;-70
2021/07/09 00:04:31;;;;;;;6.78;4.85;;;;;;;17.34;100.00;101128.34;5012603;28;22131;-72
2021/07/09 00:06:58;;;;;;;12.60;5.25;;;;;;;17.33;100.00;101127.47;5015332;28;20053;-71
2021/07/09 00:09:26;;;;;;;11.65;5.20;;;;;;;17.30;100.00;101117.09;5018474;28;20049;-72
2021/07/09 00:11:55;;;;;;;8.88;5.47;;;;;;;17.32;100.00;101117.78;5007890;28;20053;-70
2021/07/09 00:14:25;;;;;;;12.95;5.55;;;;;;;17.31;100.00;101112.59;5021493;28;20054;-71
2021/07/09 00:16:52;;;;;;;10.80;5.38;;;;;;;17.38;100.00;101103.13;5027305;28;20048;-72
2021/07/09 00:19:20;;;;;;;8.82;4.95;;;;;;;17.32;100.00;101100.97;5017896;28;20049;-71
2021/07/09 00:21:49;;;;;;;5.97;4.97;;;;;;;17.25;100.00;101103.28;5027980;28;20053;-70
2021/07/09 00:24:17;;;;;;;8.32;5.32;;;;;;;17.24;100.00;101108.72;5029783;28;20037;-72
2021/07/09 00:26:45;;;;;;;11.73;4.93;;;;;;;17.32;100.00;101109.81;5017801;28;20090;-71
2021/07/09 00:29:12;;;;;;;7.05;4.95;;;;;;;17.30;100.00;101111.75;5015663;28;20077;-71
2021/07/09 00:31:39;;;;;;;5.40;4.82;;;;;;;17.24;100.00;101114.88;5019101;28;20054;-72
2021/07/09 00:34:10;;;;;;;7.25;4.72;;;;;;;17.25;100.00;101097.97;5016543;28;20056;-72
2021/07/09 00:36:38;;;;;;;8.02;4.78;;;;;;;17.30;100.00;101093.13;5013517;28;20069;-73
2021/07/09 00:39:07;;;;;;;12.88;5.15;;;;;;;17.32;100.00;101101.81;5020097;28;20041;-72
2021/07/09 00:41:35;;;;;;;8.35;4.72;;;;;;;17.30;100.00;101087.81;5023503;28;20075;-71
2021/07/09 00:44:04;;;;;;;6.45;4.55;;;;;;;17.52;100.00;101067.47;5019051;28;20439;-71
2021/07/09 00:46:40;;;;;;;6.38;4.00;;;;;;;17.48;100.00;101072.19;5019501;28;20112;-72
2021/07/09 00:49:09;;;;;;;6.15;4.00;;;;;;;17.49;100.00;101078.34;5014821;28;20469;-71
2021/07/09 00:51:50;;;;;;;8.60;4.57;;;;;;;17.45;100.00;101067.09;5001857;28;20052;-71
2021/07/09 00:54:17;;;;;;;6.13;4.18;;;;;;;17.59;100.00;101071.28;5016086;28;20114;-69
2021/07/09 00:56:44;;;;;;;6.15;4.10;;;;;;;17.44;100.00;101074.22;5010884;28;20058;-68
2021/07/09 00:59:13;;;;;;;6.45;4.13;;;;;;;17.41;100.00;101074.47;5016338;28;20043;-68
2021/07/09 01:01:41;;;;;;;5.03;4.25;;;;;;;17.32;100.00;101069.88;4996156;28;20061;-69
2021/07/09 01:04:09;;;;;;;8.55;4.53;;;;;;;17.32;100.00;101058.41;4988856;28;20045;-68
2021/07/09 01:06:37;;;;;;;9.10;4.50;;;;;;;17.33;100.00;101070.72;4997857;28;20038;-67
2021/07/09 01:09:04;;;;;;;5.65;4.28;;;;;;;17.44;100.00;101076.91;4996998;28;20045;-69
2021/07/09 01:11:31;;;;;;;9.23;4.85;;;;;;;17.43;100.00;101079.69;5004611;28;20052;-68
2021/07/09 01:13:58;;;;;;;5.65;3.63;;;;;;;17.29;100.00;101080.81;4984830;28;20530;-69
2021/07/09 01:16:26;;;;;;;10.25;4.03;;;;;;;17.40;100.00;101072.78;5007222;28;20483;-69
2021/07/09 01:18:55;;;;;;;9.88;4.38;;;;;;;17.38;100.00;101064.09;4997523;28;20037;-68
2021/07/09 01:21:22;;;;;;;10.93;4.25;;;;;;;17.36;100.00;101068.69;4995042;28;20046;-68
2021/07/09 01:24:00;;;;;;;5.55;3.80;;;;;;;17.56;100.00;101064.41;5012903;28;20068;-67
2021/07/09 01:26:28;;;;;;;8.38;3.97;;;;;;;17.53;100.00;101059.34;5011155;28;20046;-68
2021/07/09 01:28:56;;;;;;;6.40;4.32;;;;;;;17.44;100.00;101060.94;5008702;28;20403;-68
2021/07/09 01:31:23;;;;;;;7.45;4.50;;;;;;;17.39;100.00;101047.16;5001320;28;20053;-68
2021/07/09 01:33:51;;;;;;;7.00;4.47;;;;;;;17.30;100.00;101049.72;4996338;28;20037;-68
2021/07/09 01:36:18;;;;;;;6.53;4.45;;;;;;;17.25;100.00;101042.09;4984522;28;20107;-68
2021/07/09 01:38:46;;;;;;;7.88;4.18;;;;;;;17.30;100.00;101037.25;5010805;28;20550;-69
2021/07/09 01:41:17;;;;;;;6.65;4.47;;;;;;;17.35;100.00;101039.53;5008727;28;20052;-69
2021/07/09 01:43:44;;;;;;;4.07;3.67;;;;;;;17.38;100.00;101025.97;5009981;28;20057;-69
2021/07/09 01:46:12;;;;;;;14.40;3.97;;;;;;;17.37;100.00;101032.25;5007406;28;20046;-68
2021/07/09 01:48:40;;;;;;;8.10;3.95;;;;;;;17.24;100.00;101024.41;5004750;28;20054;-67
2021/07/09 01:51:07;;;;;;;8.20;4.30;;;;;;;17.24;100.00;101016.44;4987962;28;20054;-68
2021/07/09 01:53:35;;;;;;;9.52;4.15;;;;;;;17.25;100.00;101007.50;5010152;28;20065;-68
2021/07/09 01:56:02;;;;;;;7.00;4.38;;;;;;;17.29;100.00;101006.28;5005283;28;20070;-70
2021/07/09 01:58:30;;;;;;;5.25;3.95;;;;;;;17.24;100.00;101007.59;4988168;28;20056;-68
2021/07/09 02:00:57;;;;;;;5.18;4.40;;;;;;;17.28;100.00;101009.06;5006710;28;20050;-69
2021/07/09 02:03:25;;;;;;;8.88;4.80;;;;;;;17.14;100.00;101013.66;4991954;28;20048;-68
2021/07/09 02:05:52;;;;;;;9.20;4.03;;;;;;;17.17;100.00;101007.28;5013042;28;20062;-68
2021/07/09 02:08:19;;;;;;;8.45;3.83;;;;;;;17.19;100.00;101000.84;4970727;28;20073;-67
2021/07/09 02:10:47;;;;;;;11.35;4.68;;;;;;;17.16;100.00;101005.59;5014326;28;20042;-69
2021/07/09 02:13:14;;;;;;;5.78;4.22;;;;;;;17.13;100.00;101009.34;5022357;28;20114;-69
2021/07/09 02:15:44;;;;;;;7.63;4.35;;;;;;;17.07;100.00;101004.50;5012773;28;20049;-68
2021/07/09 02:18:13;;;;;;;12.57;4.47;;;;;;;17.13;100.00;100996.03;4995225;28;20153;-69
2021/07/09 02:20:40;;;;;;;5.00;4.03;;;;;;;17.11;100.00;100995.31;4989216;28;20053;-68
2021/07/09 02:23:10;;;;;;;8.50;4.47;;;;;;;17.07;100.00;100999.19;4997660;28;20042;-68
2021/07/09 02:25:38;;;;;;;5.60;4.47;;;;;;;17.11;100.00;100995.31;4989297;28;20076;-69
2021/07/09 02:28:06;;;;;;;7.60;4.05;;;;;;;17.13;100.00;100996.03;5011654;28;20047;-69
2021/07/09 02:30:34;;;;;;;7.85;4.45;;;;;;;17.13;100.00;100995.19;4977327;28;20043;-69
2021/07/09 02:33:01;;;;;;;7.95;4.28;;;;;;;17.29;100.00;100987.66;4991937;28;20480;-69
2021/07/09 02:35:31;;;;;;;10.35;4.80;;;;;;;17.11;100.00;100984.69;5015304;28;20046;-68
2021/07/09 02:37:58;;;;;;;6.93;5.25;;;;;;;17.07;100.00;100988.56;4988970;28;20057;-68
2021/07/09 02:40:28;;;;;;;9.30;5.95;;;;;;;17.05;100.00;100986.97;4988481;28;20155;-69
2021/07/09 02:42:58;;;;;;;7.32;5.63;;;;;;;16.98;100.00;100989.28;4990446;28;20058;-70
2021/07/09 02:45:26;;;;;;;13.77;5.72;;;;;;;17.02;100.00;100980.09;4999860;28;20508;-68
2021/07/09 02:48:13;;;;;;;12.80;6.65;;;;;;;16.92;100.00;100987.09;5005564;28;20553;-68
2021/07/09 02:50:40;;;;;;;6.28;5.43;;;;;;;16.99;100.00;100985.66;4987538;28;20050;-67
2021/07/09 02:53:08;;;;;;;12.07;6.88;;;;;;;16.98;100.00;100980.47;4977374;28;20055;-68
2021/07/09 02:55:36;;;;;;;10.48;6.57;;;;;;;16.91;100.00;100982.75;4996316;28;20054;-69
2021/07/09 02:58:03;;;;;;;8.05;5.93;;;;;;;16.98;100.00;100981.31;5005472;28;20134;-69
2021/07/09 03:00:31;;;;;;;9.52;5.95;;;;;;;16.97;100.00;100976.94;5013386;28;20447;-69
2021/07/09 03:02:58;;;;;;;11.70;7.30;;;;;;;17.02;100.00;100976.56;5004067;28;20055;-69
2021/07/09 03:05:25;;;;;;;6.68;6.03;;;;;;;17.17;100.00;100991.31;5006132;28;20060;-68
2021/07/09 03:07:53;;;;;;;8.18;5.78;;;;;;;17.10;100.00;100982.13;5008376;28;20050;-69
2021/07/09 03:10:20;;;;;;;7.78;5.50;;;;;;;17.08;100.00;100984.06;5002958;28;20069;-69
2021/07/09 03:12:47;;;;;;;8.88;5.28;;;;;;;17.09;100.00;100981.28;4996265;28;20081;-69
2021/07/09 03:15:16;;;;;;;9.10;5.32;;;;;;;17.09;100.00;100983.94;5007048;28;20069;-68
2021/07/09 03:17:43;;;;;;;6.65;5.78;;;;;;;17.11;100.00;100978.47;5000283;28;20057;-69
2021/07/09 03:20:11;;;;;;;12.63;5.60;;;;;;;17.08;100.00;100974.28;5005607;28;20071;-69
2021/07/09 03:22:39;;;;;;;7.43;5.25;;;;;;;17.13;100.00;100971.25;5006319;28;20058;-67
2021/07/09 03:25:08;;;;;;;7.35;5.68;;;;;;;17.08;100.00;100962.78;4990999;28;20054;-68
2021/07/09 03:27:37;;;;;;;6.68;5.57;;;;;;;17.08;100.00;100958.31;5005717;28;20461;-69
2021/07/09 03:30:08;;;;;;;11.95;5.97;;;;;;;17.07;100.00;100948.66;4989212;28;20114;-69
2021/07/09 03:32:36;;;;;;;10.60;5.35;;;;;;;17.09;100.00;100945.84;4994204;28;20060;-69
2021/07/09 03:35:05;;;;;;;8.55;5.22;;;;;;;17.10;100.00;100943.06;4993353;28;20050;-68
2021/07/09 03:37:32;;;;;;;6.82;5.70;;;;;;;17.18;100.00;100953.09;4997163;28;20046;-69
2021/07/09 03:40:00;;;;;;;7.43;4.90;;;;;;;17.19;100.00;100958.28;5006016;28;20139;-68
2021/07/09 03:42:27;;;;;;;10.10;5.15;;;;;;;17.33;100.00;100961.63;4979902;28;20046;-69
2021/07/09 03:44:54;;;;;;;7.25;4.93;;;;;;;17.40;100.00;100969.00;5006133;28;20052;-68
2021/07/09 03:47:22;;;;;;;11.18;5.15;;;;;;;17.39;100.00;100961.13;5007153;28;20065;-68
2021/07/09 03:49:49;;;;;;;8.88;6.15;;;;;;;17.24;100.00;100959.72;5004039;28;20057;-68
2021/07/09 03:52:17;;;;;;;10.07;5.22;;;;;;;17.20;100.00;100956.44;4978582;28;20046;-69
2021/07/09 03:54:44;;;;;;;9.50;5.60;;;;;;;17.16;100.00;100947.06;5006405;28;20068;-69
2021/07/09 03:57:12;;;;;;;11.10;5.97;;;;;;;17.11;100.00;100952.75;5000727;28;20041;-69
2021/07/09 03:59:39;;;;;;;7.63;5.85;;;;;;;17.11;100.00;100952.75;5003569;28;20542;-69
2021/07/09 04:02:06;;;;;;;11.85;5.53;;;;;;;17.12;100.00;100959.75;5006475;28;20049;-69
2021/07/09 04:04:34;;;;;;;9.00;6.07;;;;;;;17.15;100.00;100962.16;5006392;28;20057;-67
2021/07/09 04:07:01;;;;;;;10.13;6.63;;;;;;;17.06;100.00;100960.25;4988482;28;20042;-67
2021/07/09 04:09:29;;;;;;;10.52;7.28;;;;;;;16.98;100.00;100962.69;4974822;28;20057;-69
2021/07/09 04:11:56;;;;;;;11.05;7.82;;;;;;;16.95;100.00;100963.78;4992321;28;20046;-68
2021/07/09 04:14:24;;;;;;;14.00;7.70;;;;;;;17.14;100.00;100957.81;5014359;28;20050;-68
2021/07/09 04:16:51;;;;;;;11.82;7.47;;;;;;;17.07;100.00;100971.75;4989823;28;20421;-66
2021/07/09 04:19:19;;;;;;;10.63;7.25;;;;;;;17.05;100.00;100971.00;4994510;28;20046;-68
2021/07/09 04:21:47;;;;;;;9.93;7.40;;;;;;;17.02;100.00;100971.25;5005210;28;20062;-67
2021/07/09 04:24:15;;;;;;;11.25;8.43;;;;;;;16.90;100.00;100965.97;4989114;28;20377;-69
2021/07/09 04:26:42;;;;;;;8.70;7.38;;;;;;;16.88;100.00;100965.22;4983061;28;20060;-68
2021/07/09 04:29:10;;;;;;;9.90;8.13;;;;;;;16.89;100.00;100960.78;4978582;28;20052;-68
2021/07/09 04:31:37;;;;;;;10.20;7.85;;;;;;;16.87;100.00;100960.03;5002649;28;20064;-68
2021/07/09 04:34:05;;;;;;;9.27;8.13;;;;;;;16.91;100.00;100958.81;5004862;28;20171;-68
2021/07/09 04:36:33;;;;;;;10.55;7.35;;;;;;;16.95;100.00;100955.78;4992781;28;20060;-68
2021/07/09 04:39:00;;;;;;;8.70;7.80;;;;;;;16.89;100.00;100950.13;4992285;28;20052;-68
2021/07/09 04:41:29;;;;;;;11.27;8.02;;;;;;;16.90;100.00;100950.00;4989298;28;20451;-67
2021/07/09 04:43:56;;;;;;;14.38;9.32;;;;;;;16.88;100.00;100941.28;5003204;28;20058;-68
2021/07/09 04:46:24;;;;;;;11.52;8.20;;;;;;;16.86;100.00;100942.41;4999299;28;20054;-68
2021/07/09 04:48:51;;;;;;;14.85;9.73;;;;;;;16.78;100.00;100936.84;5006664;28;20064;-67
2021/07/09 04:51:19;;;;;;;12.27;10.55;;;;;;;16.72;100.00;100938.19;5003846;28;20045;-68
2021/07/09 04:53:46;;;;;;;13.52;10.02;;;;;;;16.76;100.00;100942.28;5004497;28;20106;-67
2021/07/09 04:56:13;;;;;;;16.05;11.68;;;;;;;16.77;100.00;100933.34;5007519;28;20056;-67
2021/07/09 04:58:41;;;;;;;14.60;11.30;;;;;;;16.76;100.00;100933.47;5010442;28;20057;-67
2021/07/09 05:01:08;;;;;;;16.67;12.82;;;;;;;16.92;100.00;100932.09;5007081;28;20084;-68
2021/07/09 05:03:36;;;;;;;14.93;11.85;;;;;;;16.85;100.00;100936.22;5006853;28;20054;-67
2021/07/09 05:06:04;;;;;;;12.35;11.02;;;;;;;16.84;100.00;100936.34;5007440;28;20057;-69
2021/07/09 05:08:31;;;;;;;12.02;10.20;;;;;;;16.82;100.00;100923.19;5006909;28;20054;-68
2021/07/09 05:10:58;;;;;;;12.55;10.25;;;;;;;16.80;100.00;100918.97;5005651;28;20490;-69
2021/07/09 05:13:26;;;;;;;14.10;11.38;;;;;;;16.77;100.00;100913.88;5002828;28;20049;-67
2021/07/09 05:15:54;;;;;;;15.82;12.13;;;;;;;16.85;100.00;100908.81;5007104;28;20050;-68
2021/07/09 05:18:21;;;;;;;11.00;10.00;;;;;;;16.85;100.00;100908.81;5007419;28;20050;-68
2021/07/09 05:20:48;;;;;;;14.68;11.27;;;;;;;16.76;100.00;100902.41;4997264;28;20308;-68
2021/07/09 05:23:17;;;;;;;19.65;11.05;;;;;;;16.85;100.00;100896.34;5009882;28;20049;-68
2021/07/09 05:25:44;;;;;;;11.73;10.55;;;;;;;16.88;100.00;100884.59;4993393;28;20574;-68
2021/07/09 05:28:12;;;;;;;13.98;11.55;;;;;;;16.94;100.00;100882.31;5006950;28;20041;-68
2021/07/09 05:30:39;;;;;;;14.23;12.73;;;;;;;16.83;100.00;100876.16;5008084;28;20050;-68
2021/07/09 05:33:08;;;;;;;14.00;12.70;;;;;;;16.87;100.00;100869.63;4996840;28;20061;-66
2021/07/09 05:35:36;;;;;;;13.60;11.48;;;;;;;16.83;100.00;100865.53;4992867;28;20072;-67
2021/07/09 05:38:04;;;;;;;14.80;12.65;;;;;;;16.89;100.00;100860.56;5008972;28;20066;-67
2021/07/09 05:40:31;;;;;;;15.02;13.38;;;;;;;16.96;100.00;100850.25;5008834;28;20447;-67
2021/07/09 05:43:01;;;;;;;14.27;12.88;;;;;;;16.92;100.00;100851.47;4982581;28;20147;-68
2021/07/09 05:45:29;;;;;;;14.40;12.85;;;;;;;17.02;100.00;100836.47;4995328;28;20046;-68
2021/07/09 05:47:56;;;;;;;16.65;13.60;;;;;;;17.00;100.00;100822.44;5007872;28;20046;-68
2021/07/09 05:50:26;;;;;;;16.42;13.25;;;;;;;17.03;100.00;100806.25;4997763;28;20046;-67
2021/07/09 05:52:55;;;;;;;17.52;12.95;;;;;;;17.06;100.00;100792.66;5007520;28;20049;-66
2021/07/09 05:55:22;;;;;;;17.00;12.27;;;;;;;17.13;100.00;100790.34;5004131;28;20064;-67
2021/07/09 05:57:50;;;;;;;14.52;12.13;;;;;;;17.13;100.00;100808.97;4995176;28;20080;-68
2021/07/09 06:00:17;;;;;;;18.83;13.43;;;;;;;17.10;100.00;100810.06;4981347;28;20232;-68
2021/07/09 06:02:45;;;;;;;19.27;12.63;;;;;;;17.13;100.00;100823.13;4995360;28;20042;-68
2021/07/09 06:05:12;;;;;;;15.68;13.95;;;;;;;17.10;100.00;100833.16;5008128;28;20060;-68
2021/07/09 06:07:40;;;;;;;14.68;13.27;;;;;;;17.19;100.00;100827.06;5011705;28;20057;-68
2021/07/09 06:10:08;;;;;;;15.32;13.82;;;;;;;17.21;100.00;100830.47;4997970;28;20046;-68
2021/07/09 06:12:35;;;;;;;16.25;14.57;;;;;;;17.21;100.00;100833.13;5006877;28;20061;-68
2021/07/09 06:15:04;;;;;;;16.80;15.05;;;;;;;17.21;100.00;100841.94;5005354;28;20060;-68
2021/07/09 06:17:32;;;;;;;15.02;13.73;;;;;;;17.24;100.00;100840.00;4994151;28;20061;-68
2021/07/09 06:19:59;;;;;;;15.88;14.38;;;;;;;17.29;100.00;100859.94;5007617;28;20054;-67
2021/07/09 06:22:27;;;;;;;17.40;15.63;;;;;;;17.18;100.00;100866.13;5009235;28;20415;-69
2021/07/09 06:24:54;;;;;;;16.80;15.20;;;;;;;17.25;100.00;100860.31;5009026;28;20054;-68
2021/07/09 06:27:22;;;;;;;17.98;16.08;;;;;;;17.19;100.00;100857.19;5004325;28;20046;-68
2021/07/09 06:29:49;;;;;;;17.48;15.63;;;;;;;17.25;100.00;100855.00;4998264;28;20062;-67
2021/07/09 06:32:16;;;;;;;16.52;14.90;;;;;;;17.32;100.00;100858.81;5004633;28;20050;-67
2021/07/09 06:34:44;;;;;;;15.50;14.00;;;;;;;17.36;100.00;100854.94;5006107;28;20057;-67
2021/07/09 06:37:11;;;;;;;15.50;13.57;;;;;;;17.41;100.00;100855.38;4996640;28;20046;-67
2021/07/09 06:39:38;;;;;;;15.50;13.93;;;;;;;17.43;100.00;100861.44;5006095;28;20516;-68
2021/07/09 06:42:06;;;;;;;15.48;14.10;;;;;;;17.47;100.00;100860.19;5004559;28;20038;-69
2021/07/09 06:44:33;;;;;;;15.73;14.15;;;;;;;17.56;100.00;100859.44;4991083;28;20061;-68
2021/07/09 06:47:00;;;;;;;15.52;14.02;;;;;;;17.60;100.00;100868.81;5007697;28;20049;-69
2021/07/09 06:49:28;;;;;;;15.75;14.25;;;;;;;17.67;100.00;100872.69;5006209;28;20598;-67
2021/07/09 06:51:55;;;;;;;17.02;15.10;;;;;;;17.59;100.00;100869.81;5002684;28;20042;-68
2021/07/09 06:54:23;;;;;;;16.02;14.52;;;;;;;17.58;100.00;100869.94;5007394;28;20053;-67
2021/07/09 06:56:50;;;;;;;17.08;15.43;;;;;;;17.63;100.00;100870.41;4992162;28;20111;-68
2021/07/09 06:59:17;;;;;;;18.27;15.18;;;;;;;17.64;100.00;100864.94;5008769;28;20048;-69
2021/07/09 07:01:45;;;;;;;16.70;15.13;;;;;;;17.63;100.00;100859.75;4993883;28;20393;-68
2021/07/09 07:04:14;;;;;;;16.75;15.20;;;;;;;17.62;100.00;100856.25;4998222;28;20110;-68
2021/07/09 07:06:42;;;;;;;16.95;15.07;;;;;;;17.67;100.00;100858.53;5005609;28;20168;-68
2021/07/09 07:09:09;;;;;;;17.13;15.32;;;;;;;17.74;100.00;100851.72;4991973;28;20520;-68
2021/07/09 07:11:37;;;;;;;16.15;14.57;;;;;;;17.77;100.00;100847.97;4981266;28;20057;-68
2021/07/09 07:14:04;;;;;;;18.08;15.30;;;;;;;17.79;100.00;100852.19;5011135;28;20050;-67
2021/07/09 07:16:31;;;;;;;16.77;14.95;;;;;;;17.94;100.00;100850.84;5012675;28;20204;-68
2021/07/09 07:19:01;;;;;;;17.73;15.82;;;;;;;17.91;100.00;100860.94;5006806;28;20054;-68
2021/07/09 07:21:29;;;;;;;16.88;15.13;;;;;;;17.83;100.00;100848.28;5006027;28;20399;-68
2021/07/09 07:23:56;;;;;;;16.05;14.55;;;;;;;17.83;100.00;100850.97;4999777;28;20046;-68
2021/07/09 07:26:28;;;;;;;17.67;16.08;;;;;;;17.89;100.00;100849.56;5004800;28;20516;-69
2021/07/09 07:28:55;;;;;;;20.17;15.65;;;;;;;17.93;100.00;100843.84;4989513;28;20046;-69
2021/07/09 07:31:23;;;;;;;19.40;15.68;;;;;;;17.93;100.00;100841.19;5008307;28;20461;-69
2021/07/09 07:33:50;;;;;;;19.10;17.33;;;;;;;17.92;100.00;100836.84;5007483;28;20145;-69
2021/07/09 07:36:18;;;;;;;18.27;16.35;;;;;;;18.06;100.00;100829.47;5002925;28;20050;-67
2021/07/09 07:38:46;;;;;;;18.02;16.13;;;;;;;18.12;100.00;100826.28;5007286;28;20050;-68
2021/07/09 07:41:15;;;;;;;16.02;14.52;;;;;;;18.23;100.00;100835.00;5012430;28;20072;-67
2021/07/09 07:43:43;;;;;;;21.80;16.60;;;;;;;18.34;100.00;100826.06;5014279;28;20161;-68
2021/07/09 07:46:15;;;;;;;16.80;15.35;;;;;;;18.41;100.00;100829.00;5001188;28;20064;-68
2021/07/09 07:48:43;;;;;;;16.75;15.05;;;;;;;18.45;100.00;100819.78;5006560;28;20060;-68
2021/07/09 07:51:10;;;;;;;17.50;15.55;;;;;;;18.58;100.00;100816.84;5003587;28;20075;-70
2021/07/09 07:53:37;;;;;;;18.33;14.48;;;;;;;18.71;100.00;100820.16;4995343;28;20054;-68
2021/07/09 07:56:06;;;;;;;17.52;14.60;;;;;;;18.67;100.00;100818.69;5002900;28;20370;-68
2021/07/09 07:58:33;;;;;;;16.33;14.32;;;;;;;18.81;100.00;100815.66;4994461;28;20137;-68
2021/07/09 08:01:01;;;;;;;20.70;14.13;;;;;;;18.88;100.00;100813.28;5004489;28;20411;-68
2021/07/09 08:03:28;;;;;;;20.52;14.38;;;;;;;18.85;100.00;100814.41;5007880;28;20411;-67
2021/07/09 08:05:56;;;;;;;15.52;14.13;;;;;;;18.90;100.00;100809.47;4997902;28;20613;-69
2021/07/09 08:08:23;;;;;;;16.20;13.82;;;;;;;19.22;100.00;100814.53;4997937;28;20072;-67
2021/07/09 08:10:51;;;;;;;15.77;14.05;;;;;;;19.37;100.00;100803.44;5004393;28;20368;-67
2021/07/09 08:13:18;;;;;;;14.40;13.10;;;;;;;19.30;100.00;100807.66;5006897;28;20041;-68
2021/07/09 08:15:45;;;;;;;13.15;11.45;;;;;;;19.58;100.00;100806.75;5003848;28;20057;-68
2021/07/09 08:18:13;;;;;;;13.63;12.20;;;;;;;19.41;100.00;100815.53;5006627;28;20392;-68
2021/07/09 08:20:40;;;;;;;13.63;12.23;;;;;;;19.43;100.00;100810.88;5004458;28;20056;-68
2021/07/09 08:23:08;;;;;;;13.55;12.18;;;;;;;19.45;100.00;100817.78;4994730;28;20058;-67
2021/07/09 08:25:35;;;;;;;15.38;12.80;;;;;;;19.34;100.00;100819.75;5005911;28;20387;-68
2021/07/09 08:28:03;;;;;;;13.18;11.02;;;;;;;19.51;100.00;100820.84;5008600;28;20141;-68
2021/07/09 08:30:30;;;;;;;15.05;13.43;;;;;;;19.41;100.00;100823.53;5012325;28;20050;-68
2021/07/09 08:32:58;;;;;;;13.40;12.10;;;;;;;19.67;100.00;100819.28;5019007;28;20038;-69
2021/07/09 08:35:25;;;;;;;15.02;13.40;;;;;;;19.45;100.00;100816.91;4997303;28;20079;-69
2021/07/09 08:37:53;;;;;;;14.05;12.55;;;;;;;19.53;100.00;100813.53;5010992;28;20448;-69
2021/07/09 08:40:20;;;;;;;13.15;11.48;;;;;;;19.68;100.00;100817.47;5009073;28;20396;-68
2021/07/09 08:42:48;;;;;;;15.25;13.45;;;;;;;19.53;100.00;100824.19;5003104;28;20046;-68
2021/07/09 08:45:15;;;;;;;13.38;12.13;;;;;;;19.51;100.00;100823.53;5010074;28;20060;-70
2021/07/09 08:47:43;;;;;;;15.55;12.52;;;;;;;19.36;100.00;100815.94;5009829;28;20060;-70
2021/07/09 08:50:11;;;;;;;12.85;11.32;;;;;;;19.32;100.00;100813.69;5003432;28;20054;-69
2021/07/09 08:52:40;;;;;;;14.63;13.07;;;;;;;19.36;100.00;100825.75;5009936;28;20052;-69
2021/07/09 08:55:11;;;;;;;16.13;12.38;;;;;;;19.63;100.00;100823.25;4999958;28;20050;-70
2021/07/09 08:57:43;;;;;;;13.70;11.10;;;;;;;19.75;100.00;100823.91;4996871;28;20049;-70
2021/07/09 09:00:32;;;;;;;18.70;13.30;;;;;;;19.76;100.00;100816.72;4999916;28;20591;-69
2021/07/09 09:03:01;;;;;;;13.40;11.05;;;;;;;19.75;100.00;100815.88;5006594;28;20048;-68
2021/07/09 09:05:29;;;;;;;17.73;10.95;;;;;;;19.73;98.96;100823.22;4995878;28;20045;-68
2021/07/09 09:07:59;;;;;;;17.88;11.05;;;;;;;19.85;99.47;100821.19;4997515;28;20046;-70
2021/07/09 09:10:38;;;;;;;10.90;9.32;;;;;;;19.79;98.57;100813.78;4995368;28;20046;-68
2021/07/09 09:13:20;;;;;;;12.23;10.93;;;;;;;19.75;98.55;100810.53;5004370;28;20056;-69
2021/07/09 09:16:12;;;;;;;16.17;10.88;;;;;;;19.77;99.84;100810.38;4995918;28;20122;-70
2021/07/09 09:18:43;;;;;;;15.00;10.70;;;;;;;19.69;99.15;100808.47;4986882;28;20500;-68
2021/07/09 09:21:10;;;;;;;13.02;9.65;;;;;;;19.78;98.89;100804.09;4978946;28;20197;-70
2021/07/09 09:23:50;;;;;;;11.10;9.05;;;;;;;19.65;99.05;100797.22;5009327;28;20050;-68
2021/07/09 09:26:45;;;;;;;11.90;9.45;;;;;;;20.27;94.11;100799.38;5003929;28;20048;-69
2021/07/09 09:29:33;;;;;;;10.48;8.65;;;;;;;20.43;91.93;100794.19;5005008;28;20046;-69
2021/07/09 09:32:04;;;;;;;9.82;8.43;;;;;;;20.24;93.31;100804.03;4999822;28;20057;-68
2021/07/09 09:34:42;;;;;;;14.00;9.07;;;;;;;20.46;94.46;100812.63;4994833;28;20224;-69
2021/07/09 09:37:12;;;;;;;13.02;8.88;;;;;;;20.58;93.60;100806.13;4981865;28;20100;-69
2021/07/09 09:39:44;;;;;;;13.65;7.63;;;;;;;20.51;93.88;100805.03;4995842;28;20432;-69
2021/07/09 09:42:21;;;;;;;11.52;7.40;;;;;;;20.92;90.13;100802.78;5006443;28;20511;-69
2021/07/09 09:44:52;;;;;;;8.00;7.03;;;;;;;21.49;86.20;100814.00;4997852;28;20069;-69
2021/07/09 09:47:21;;;;;;;11.23;6.82;;;;;;;21.73;83.72;100803.41;4978202;28;20046;-69
2021/07/09 09:49:54;;;;;;;10.40;7.10;;;;;;;21.68;82.66;100805.72;5006619;28;20286;-68
2021/07/09 09:52:40;;;;;;;7.03;6.15;;;;;;;21.27;85.85;100798.38;5007586;28;20058;-67
2021/07/09 09:55:09;;;;;;;9.75;5.93;;;;;;;20.98;86.94;100799.47;5001436;28;20046;-69
2021/07/09 09:57:37;;;;;;;8.82;6.38;;;;;;;21.29;85.64;100799.91;5007737;28;20046;-68
2021/07/09 10:00:09;;;;;;;7.03;5.60;;;;;;;21.20;83.84;100796.31;5004657;28;20067;-69
2021/07/09 10:02:37;;;;;;;6.90;5.75;;;;;;;20.60;86.49;100796.09;5008270;28;20065;-69
2021/07/09 10:05:04;;;;;;;10.15;6.47;;;;;;;20.28;88.97;100791.19;4995337;28;20508;-68
2021/07/09 10:07:35;;;;;;;7.65;6.45;;;;;;;20.17;91.59;100791.38;4992331;28;20057;-69
2021/07/09 10:10:04;;;;;;;8.07;6.38;;;;;;;20.29;92.23;100786.69;4995659;28;20547;-70
2021/07/09 10:12:32;;;;;;;10.30;6.00;;;;;;;20.18;90.53;100785.91;5006886;28;20042;-69
2021/07/09 10:15:00;;;;;;;6.85;5.70;;;;;;;20.15;91.79;100788.03;4995979;28;20750;-69
2021/07/09 10:17:28;;;;;;;11.02;6.30;;;;;;;20.19;93.09;100786.75;4997537;28;20046;-69
2021/07/09 10:19:58;;;;;;;7.53;6.25;;;;;;;19.99;92.47;100785.97;5002543;28;20080;-69
2021/07/09 10:22:41;;;;;;;11.98;6.97;;;;;;;19.89;94.06;100782.50;4994629;28;20281;-69
2021/07/09 10:25:09;;;;;;;11.18;8.10;;;;;;;20.00;93.88;100787.69;5004115;28;20053;-69
2021/07/09 10:27:37;;;;;;;10.50;7.43;;;;;;;19.78;95.72;100796.06;5013279;28;20113;-68
2021/07/09 10:30:06;;;;;;;12.52;8.00;;;;;;;19.98;94.77;100782.47;5006247;28;20052;-68
2021/07/09 10:32:35;;;;;;;12.85;8.05;;;;;;;19.89;95.97;100791.38;5000221;28;20060;-68
2021/07/09 10:35:07;;;;;;;15.13;10.10;;;;;;;19.61;97.89;100785.13;4998398;28;20405;-69
2021/07/09 10:37:35;;;;;;;16.85;9.93;;;;;;;19.72;97.88;100784.13;4994548;28;20042;-69
2021/07/09 10:40:08;;;;;;;15.35;9.68;;;;;;;19.62;98.49;100784.16;4999545;28;20407;-69
2021/07/09 10:42:40;;;;;;;13.18;9.55;;;;;;;19.62;98.95;100775.28;5008699;28;20152;-68
2021/07/09 10:45:28;;;;;;;14.13;9.60;;;;;;;19.64;99.11;100779.53;5005846;28;20068;-68
2021/07/09 10:48:13;;;;;;;15.60;12.00;;;;;;;19.50;100.00;100771.94;5005343;28;20088;-69
2021/07/09 10:50:54;;;;;;;18.10;11.70;;;;;;;19.60;100.00;100771.91;4994271;28;20178;-68
2021/07/09 10:53:25;;;;;;;14.80;11.13;;;;;;;19.53;100.00;100774.31;4997090;28;20046;-69
2021/07/09 10:55:57;;;;;;;19.27;13.07;;;;;;;19.43;100.00;100784.19;4994900;28;20050;-68
2021/07/09 10:58:26;;;;;;;17.00;11.82;;;;;;;19.41;100.00;100781.66;4998272;28;20060;-69
2021/07/09 11:00:56;;;;;;;22.05;14.45;;;;;;;19.47;100.00;100780.22;5004930;28;20049;-69
2021/07/09 11:03:44;;;;;;;19.67;13.68;;;;;;;19.53;100.00;100776.97;5016175;28;20503;-68
2021/07/09 11:06:20;;;;;;;20.35;13.52;;;;;;;19.41;100.00;100787.00;5008400;28;20121;-69
2021/07/09 11:09:18;;;;;;;;;;;;;;;19.10;100.00;100767.66;5004707;28;20050;-69
2021/07/09 11:12:01;;;;;;;20.70;16.52;;;;;;;18.84;100.00;100774.53;5001136;28;19921;-69
2021/07/09 11:14:35;;;;;;;26.15;16.23;;;;;;;18.71;100.00;100778.31;5008678;28;20048;-70
2021/07/09 11:17:19;;;;;;;23.15;17.90;;;;;;;18.69;100.00;100782.97;5008697;28;20038;-67
2021/07/09 11:20:12;;;;;;;24.13;17.38;;;;;;;18.69;100.00;100777.63;4992908;28;20487;-67